sensor_id;sensor_type;location;lat;lon;timestamp;pressure;altitude;pressure_sealevel;temperature;humidity
27425;BME280;15244;49.088;11.886;2022-09-28T00:04:13;94303.81;;;10.83;53.40
27425;BME280;15244;49.088;11.886;2022-09-28T00:09:15;94304.19;;;10.85;53.34
27425;BME280;15244;49.088;11.886;2022-09-28T00:14:17;94277.00;;;10.81;53.58
27425;BME280;15244;49.088;11.886;2022-09-28T00:19:19;94284.06;;;10.79;53.55
27425;BME280;15244;49.088;11.886;2022-09-28T00:24:20;94272.84;;;10.73;53.15
27425;BME280;15244;49.088;11.886;2022-09-28T00:29:30;94266.59;;;10.76;53.52
27425;BME280;15244;49.088;11.886;2022-09-28T00:34:35;94263.41;;;10.78;53.19
27425;BME280;15244;49.088;11.886;2022-09-28T00:39:37;94256.84;;;10.75;53.38
27425;BME280;15244;49.088;11.886;2022-09-28T00:44:54;94259.16;;;10.77;53.33
27425;BME280;15244;49.088;11.886;2022-09-28T00:55:12;94243.03;;;10.66;53.95
27425;BME280;15244;49.088;11.886;2022-09-28T01:00:14;94227.78;;;10.69;54.10
27425;BME280;15244;49.088;11.886;2022-09-28T01:05:16;94230.53;;;10.69;54.17
27425;BME280;15244;49.088;11.886;2022-09-28T01:10:19;94218.41;;;10.70;54.21
27425;BME280;15244;49.088;11.886;2022-09-28T01:15:23;94220.66;;;10.75;54.06
27425;BME280;15244;49.088;11.886;2022-09-28T01:25:50;94199.25;;;10.73;54.54
27425;BME280;15244;49.088;11.886;2022-09-28T01:31:09;94185.63;;;10.73;54.60
27425;BME280;15244;49.088;11.886;2022-09-28T01:36:18;94174.31;;;10.75;54.56
27425;BME280;15244;49.088;11.886;2022-09-28T01:41:22;94159.06;;;10.77;54.64
27425;BME280;15244;49.088;11.886;2022-09-28T01:46:46;94159.47;;;10.76;54.78
27425;BME280;15244;49.088;11.886;2022-09-28T01:51:57;94156.00;;;10.75;54.90
27425;BME280;15244;49.088;11.886;2022-09-28T01:57:06;94141.19;;;10.76;55.00
27425;BME280;15244;49.088;11.886;2022-09-28T02:02:15;94143.06;;;10.79;55.50
27425;BME280;15244;49.088;11.886;2022-09-28T02:07:26;94130.09;;;10.83;55.51
27425;BME280;15244;49.088;11.886;2022-09-28T02:12:35;94100.06;;;10.87;55.91
27425;BME280;15244;49.088;11.886;2022-09-28T02:17:38;94089.81;;;10.91;55.91
27425;BME280;15244;49.088;11.886;2022-09-28T02:22:46;94081.91;;;10.97;55.70
27425;BME280;15244;49.088;11.886;2022-09-28T02:27:57;94082.25;;;10.99;55.95
27425;BME280;15244;49.088;11.886;2022-09-28T02:33:08;94068.19;;;11.00;56.08
27425;BME280;15244;49.088;11.886;2022-09-28T02:38:13;94054.91;;;11.02;55.81
27425;BME280;15244;49.088;11.886;2022-09-28T02:43:26;94054.78;;;11.06;55.70
27425;BME280;15244;49.088;11.886;2022-09-28T02:49:01;94045.84;;;11.05;55.61
27425;BME280;15244;49.088;11.886;2022-09-28T02:54:32;94039.97;;;11.07;55.68
27425;BME280;15244;49.088;11.886;2022-09-28T02:59:52;94045.34;;;11.11;55.59
27425;BME280;15244;49.088;11.886;2022-09-28T03:05:20;94034.88;;;11.09;55.70
27425;BME280;15244;49.088;11.886;2022-09-28T03:10:34;94015.84;;;11.05;56.04
27425;BME280;15244;49.088;11.886;2022-09-28T03:15:37;94006.50;;;11.06;56.28
27425;BME280;15244;49.088;11.886;2022-09-28T03:20:39;93997.88;;;11.08;56.33
27425;BME280;15244;49.088;11.886;2022-09-28T03:25:40;93992.75;;;11.10;56.34
27425;BME280;15244;49.088;11.886;2022-09-28T03:30:42;93986.09;;;11.11;56.37
27425;BME280;15244;49.088;11.886;2022-09-28T03:35:50;93978.72;;;11.12;56.17
27425;BME280;15244;49.088;11.886;2022-09-28T03:40:57;93976.28;;;11.14;56.26
27425;BME280;15244;49.088;11.886;2022-09-28T03:46:01;93958.75;;;11.15;56.21
27425;BME280;15244;49.088;11.886;2022-09-28T03:51:08;93946.63;;;11.16;56.48
27425;BME280;15244;49.088;11.886;2022-09-28T03:56:13;93940.75;;;11.17;56.66
27425;BME280;15244;49.088;11.886;2022-09-28T04:01:15;93927.47;;;11.19;56.74
27425;BME280;15244;49.088;11.886;2022-09-28T04:06:20;93915.69;;;11.22;56.48
27425;BME280;15244;49.088;11.886;2022-09-28T04:11:22;93903.91;;;11.25;56.26
27425;BME280;15244;49.088;11.886;2022-09-28T04:16:24;93902.69;;;11.26;56.80
27425;BME280;15244;49.088;11.886;2022-09-28T04:21:40;93891.78;;;11.26;56.34
27425;BME280;15244;49.088;11.886;2022-09-28T04:26:46;93886.31;;;11.26;56.80
27425;BME280;15244;49.088;11.886;2022-09-28T04:31:49;93879.25;;;11.29;56.50
27425;BME280;15244;49.088;11.886;2022-09-28T04:36:52;93880.03;;;11.30;56.50
27425;BME280;15244;49.088;11.886;2022-09-28T04:41:54;93872.59;;;11.30;56.29
27425;BME280;15244;49.088;11.886;2022-09-28T04:46:56;93861.34;;;11.28;56.92
27425;BME280;15244;49.088;11.886;2022-09-28T04:52:03;93864.19;;;11.24;56.87
27425;BME280;15244;49.088;11.886;2022-09-28T04:57:06;93842.03;;;11.22;56.93
27425;BME280;15244;49.088;11.886;2022-09-28T05:02:10;93844.84;;;11.19;56.79
27425;BME280;15244;49.088;11.886;2022-09-28T05:07:47;93839.94;;;11.14;56.94
27425;BME280;15244;49.088;11.886;2022-09-28T05:12:48;93844.53;;;11.17;57.34
27425;BME280;15244;49.088;11.886;2022-09-28T05:17:51;93835.16;;;11.18;56.94
27425;BME280;15244;49.088;11.886;2022-09-28T05:23:00;93846.06;;;11.18;57.37
27425;BME280;15244;49.088;11.886;2022-09-28T05:28:01;93838.97;;;11.20;57.17
27425;BME280;15244;49.088;11.886;2022-09-28T05:33:22;93831.53;;;11.21;57.52
27425;BME280;15244;49.088;11.886;2022-09-28T05:38:30;93829.91;;;11.23;57.42
27425;BME280;15244;49.088;11.886;2022-09-28T05:43:32;93824.13;;;11.21;57.48
27425;BME280;15244;49.088;11.886;2022-09-28T05:48:33;93818.59;;;11.25;57.42
27425;BME280;15244;49.088;11.886;2022-09-28T05:53:36;93828.19;;;11.30;57.28
27425;BME280;15244;49.088;11.886;2022-09-28T05:58:38;93818.81;;;11.31;57.45
27425;BME280;15244;49.088;11.886;2022-09-28T06:03:43;93812.91;;;11.32;57.78
27425;BME280;15244;49.088;11.886;2022-09-28T06:08:45;93816.41;;;11.33;57.56
27425;BME280;15244;49.088;11.886;2022-09-28T06:14:14;93812.25;;;11.28;58.20
27425;BME280;15244;49.088;11.886;2022-09-28T06:19:16;93810.94;;;11.33;58.22
27425;BME280;15244;49.088;11.886;2022-09-28T06:24:37;93810.94;;;11.33;57.99
27425;BME280;15244;49.088;11.886;2022-09-28T06:29:38;93803.53;;;11.33;58.06
27425;BME280;15244;49.088;11.886;2022-09-28T06:34:40;93802.31;;;11.34;58.33
27425;BME280;15244;49.088;11.886;2022-09-28T06:39:43;93808.22;;;11.33;58.26
27425;BME280;15244;49.088;11.886;2022-09-28T06:44:45;93811.16;;;11.25;58.53
27425;BME280;15244;49.088;11.886;2022-09-28T06:50:07;93813.22;;;11.21;59.33
27425;BME280;15244;49.088;11.886;2022-09-28T06:55:46;93822.94;;;11.22;59.11
27425;BME280;15244;49.088;11.886;2022-09-28T07:00:51;93820.84;;;11.26;59.06
27425;BME280;15244;49.088;11.886;2022-09-28T07:05:54;93831.31;;;11.15;59.51
27425;BME280;15244;49.088;11.886;2022-09-28T07:11:11;93833.94;;;11.19;59.01
27425;BME280;15244;49.088;11.886;2022-09-28T07:16:33;93834.03;;;11.15;59.53
27425;BME280;15244;49.088;11.886;2022-09-28T07:21:55;93837.66;;;11.12;59.93
27425;BME280;15244;49.088;11.886;2022-09-28T07:27:06;93867.00;;;11.21;59.47
27425;BME280;15244;49.088;11.886;2022-09-28T07:32:12;93873.47;;;11.27;59.69
27425;BME280;15244;49.088;11.886;2022-09-28T07:37:26;93881.78;;;11.36;59.23
27425;BME280;15244;49.088;11.886;2022-09-28T07:42:28;93883.53;;;11.43;59.59
27425;BME280;15244;49.088;11.886;2022-09-28T07:47:32;93889.13;;;11.52;59.28
27425;BME280;15244;49.088;11.886;2022-09-28T07:53:02;93900.16;;;11.61;59.51
27425;BME280;15244;49.088;11.886;2022-09-28T07:58:14;93901.06;;;11.71;59.11
27425;BME280;15244;49.088;11.886;2022-09-28T08:03:22;93918.41;;;11.77;59.43
27425;BME280;15244;49.088;11.886;2022-09-28T08:08:26;93913.50;;;11.85;59.21
27425;BME280;15244;49.088;11.886;2022-09-28T08:13:28;93911.13;;;11.87;58.63
27425;BME280;15244;49.088;11.886;2022-09-28T08:18:37;93921.09;;;11.93;58.60
27425;BME280;15244;49.088;11.886;2022-09-28T08:23:39;93936.28;;;11.95;58.92
27425;BME280;15244;49.088;11.886;2022-09-28T08:28:41;93941.72;;;11.95;58.74
27425;BME280;15244;49.088;11.886;2022-09-28T08:34:03;93937.81;;;11.96;58.62
27425;BME280;15244;49.088;11.886;2022-09-28T08:39:23;93934.97;;;11.99;58.63
27425;BME280;15244;49.088;11.886;2022-09-28T08:44:52;93939.47;;;12.06;58.44
27425;BME280;15244;49.088;11.886;2022-09-28T08:50:23;93948.28;;;12.10;58.30
27425;BME280;15244;49.088;11.886;2022-09-28T08:55:35;93955.53;;;12.17;58.23
27425;BME280;15244;49.088;11.886;2022-09-28T09:00:50;93965.91;;;12.22;58.24
27425;BME280;15244;49.088;11.886;2022-09-28T09:06:23;93964.94;;;12.28;58.23
27425;BME280;15244;49.088;11.886;2022-09-28T09:23:00;94002.84;;;12.39;57.72
27425;BME280;15244;49.088;11.886;2022-09-28T09:28:28;94005.59;;;12.39;57.68
27425;BME280;15244;49.088;11.886;2022-09-28T09:39:33;94006.13;;;12.34;57.57
27425;BME280;15244;49.088;11.886;2022-09-28T09:45:22;94013.44;;;12.37;57.89
27425;BME280;15244;49.088;11.886;2022-09-28T09:50:55;93992.25;;;12.41;57.76
27425;BME280;15244;49.088;11.886;2022-09-28T10:01:44;94002.97;;;12.61;57.82
27425;BME280;15244;49.088;11.886;2022-09-28T10:06:57;93991.56;;;12.75;57.67
27425;BME280;15244;49.088;11.886;2022-09-28T10:12:01;93994.84;;;12.83;57.41
27425;BME280;15244;49.088;11.886;2022-09-28T10:17:04;93998.00;;;12.94;57.49
27425;BME280;15244;49.088;11.886;2022-09-28T10:22:25;94007.84;;;13.05;57.25
27425;BME280;15244;49.088;11.886;2022-09-28T10:27:33;94008.38;;;13.12;57.05
27425;BME280;15244;49.088;11.886;2022-09-28T10:32:38;94010.06;;;13.19;56.64
27425;BME280;15244;49.088;11.886;2022-09-28T10:37:53;94008.00;;;13.23;56.42
27425;BME280;15244;49.088;11.886;2022-09-28T10:43:31;94015.31;;;13.26;56.12
27425;BME280;15244;49.088;11.886;2022-09-28T10:54:01;94036.00;;;13.40;55.88
27425;BME280;15244;49.088;11.886;2022-09-28T11:04:50;94025.78;;;13.53;55.55
27425;BME280;15244;49.088;11.886;2022-09-28T11:09:54;94022.47;;;13.58;55.33
27425;BME280;15244;49.088;11.886;2022-09-28T11:15:02;94026.06;;;13.68;55.14
27425;BME280;15244;49.088;11.886;2022-09-28T11:25:29;94023.25;;;13.81;54.61
27425;BME280;15244;49.088;11.886;2022-09-28T11:30:37;94019.19;;;13.85;54.63
27425;BME280;15244;49.088;11.886;2022-09-28T11:41:40;94017.53;;;13.88;54.35
27425;BME280;15244;49.088;11.886;2022-09-28T11:47:04;94017.06;;;13.90;54.32
27425;BME280;15244;49.088;11.886;2022-09-28T11:52:15;94013.00;;;13.94;54.02
27425;BME280;15244;49.088;11.886;2022-09-28T11:57:29;94039.81;;;13.99;53.94
27425;BME280;15244;49.088;11.886;2022-09-28T12:02:37;94036.88;;;13.94;53.33
27425;BME280;15244;49.088;11.886;2022-09-28T12:07:46;94041.22;;;13.82;52.88
27425;BME280;15244;49.088;11.886;2022-09-28T12:13:22;94044.19;;;13.75;53.01
27425;BME280;15244;49.088;11.886;2022-09-28T12:18:43;94040.06;;;13.70;52.97
27425;BME280;15244;49.088;11.886;2022-09-28T12:23:50;94044.72;;;13.60;53.07
27425;BME280;15244;49.088;11.886;2022-09-28T12:28:57;94059.59;;;13.59;52.97
27425;BME280;15244;49.088;11.886;2022-09-28T12:34:01;94061.47;;;13.62;52.95
27425;BME280;15244;49.088;11.886;2022-09-28T12:56:15;94062.84;;;13.67;52.19
27425;BME280;15244;49.088;11.886;2022-09-28T13:12:25;94077.75;;;14.01;51.87
27425;BME280;15244;49.088;11.886;2022-09-28T13:22:54;94084.94;;;14.29;51.60
27425;BME280;15244;49.088;11.886;2022-09-28T13:28:04;94075.44;;;14.43;51.41
27425;BME280;15244;49.088;11.886;2022-09-28T13:33:07;94093.34;;;14.57;51.18
27425;BME280;15244;49.088;11.886;2022-09-28T13:38:27;94081.63;;;14.57;50.40
27425;BME280;15244;49.088;11.886;2022-09-28T13:54:54;94079.50;;;14.61;50.23
27425;BME280;15244;49.088;11.886;2022-09-28T13:59:32;94092.94;;;14.68;49.89
27425;BME280;15244;49.088;11.886;2022-09-28T14:05:04;94093.69;;;14.68;49.64
27425;BME280;15244;49.088;11.886;2022-09-28T14:15:45;94105.25;;;14.63;49.52
27425;BME280;15244;49.088;11.886;2022-09-28T14:31:32;94103.56;;;14.57;49.50
27425;BME280;15244;49.088;11.886;2022-09-28T14:36:40;94089.38;;;14.58;49.49
27425;BME280;15244;49.088;11.886;2022-09-28T14:42:07;94107.69;;;14.61;49.51
27425;BME280;15244;49.088;11.886;2022-09-28T14:47:24;94104.50;;;14.63;49.63
27425;BME280;15244;49.088;11.886;2022-09-28T14:52:43;94104.50;;;14.63;49.56
27425;BME280;15244;49.088;11.886;2022-09-28T14:57:51;94106.97;;;14.70;49.63
27425;BME280;15244;49.088;11.886;2022-09-28T15:02:58;94106.56;;;14.81;49.61
27425;BME280;15244;49.088;11.886;2022-09-28T15:08:00;94104.03;;;14.86;49.47
27425;BME280;15244;49.088;11.886;2022-09-28T15:13:04;94109.78;;;14.88;48.90
27425;BME280;15244;49.088;11.886;2022-09-28T15:23:44;94105.47;;;14.78;47.90
27425;BME280;15244;49.088;11.886;2022-09-28T15:28:47;94112.63;;;14.76;47.31
27425;BME280;15244;49.088;11.886;2022-09-28T15:33:48;94113.09;;;14.74;47.30
27425;BME280;15244;49.088;11.886;2022-09-28T15:39:13;94111.13;;;14.74;47.09
27425;BME280;15244;49.088;11.886;2022-09-28T15:44:30;94119.94;;;14.69;46.95
27425;BME280;15244;49.088;11.886;2022-09-28T15:49:43;94133.00;;;14.65;46.92
27425;BME280;15244;49.088;11.886;2022-09-28T15:54:45;94132.25;;;14.65;46.79
27425;BME280;15244;49.088;11.886;2022-09-28T15:59:53;94136.66;;;14.62;46.88
27425;BME280;15244;49.088;11.886;2022-09-28T16:04:58;94143.78;;;14.60;46.75
27425;BME280;15244;49.088;11.886;2022-09-28T16:10:03;94136.00;;;14.58;46.91
27425;BME280;15244;49.088;11.886;2022-09-28T16:15:20;94138.44;;;14.56;46.95
27425;BME280;15244;49.088;11.886;2022-09-28T16:20:27;94145.69;;;14.50;46.92
27425;BME280;15244;49.088;11.886;2022-09-28T16:25:30;94157.69;;;14.43;46.89
27425;BME280;15244;49.088;11.886;2022-09-28T16:30:33;94153.34;;;14.33;46.98
27425;BME280;15244;49.088;11.886;2022-09-28T16:40:44;94163.59;;;14.20;47.05
27425;BME280;15244;49.088;11.886;2022-09-28T16:45:48;94168.72;;;14.18;47.19
27425;BME280;15244;49.088;11.886;2022-09-28T16:50:50;94173.91;;;14.16;47.28
27425;BME280;15244;49.088;11.886;2022-09-28T16:55:51;94169.75;;;14.11;47.01
27425;BME280;15244;49.088;11.886;2022-09-28T17:00:53;94176.13;;;14.08;46.80
27425;BME280;15244;49.088;11.886;2022-09-28T17:05:55;94173.84;;;14.06;47.62
27425;BME280;15244;49.088;11.886;2022-09-28T17:10:59;94173.97;;;14.03;47.15
27425;BME280;15244;49.088;11.886;2022-09-28T17:16:27;94176.06;;;13.99;47.30
27425;BME280;15244;49.088;11.886;2022-09-28T17:21:51;94174.63;;;13.94;47.44
27425;BME280;15244;49.088;11.886;2022-09-28T17:26:53;94177.50;;;13.91;47.24
27425;BME280;15244;49.088;11.886;2022-09-28T17:31:55;94180.34;;;13.87;47.50
27425;BME280;15244;49.088;11.886;2022-09-28T17:36:57;94177.41;;;13.81;47.44
27425;BME280;15244;49.088;11.886;2022-09-28T17:41:58;94181.13;;;13.75;47.64
27425;BME280;15244;49.088;11.886;2022-09-28T17:47:01;94185.66;;;13.69;47.73
27425;BME280;15244;49.088;11.886;2022-09-28T17:52:02;94197.91;;;13.64;47.65
27425;BME280;15244;49.088;11.886;2022-09-28T17:57:07;94198.03;;;13.60;47.75
27425;BME280;15244;49.088;11.886;2022-09-28T18:02:10;94198.94;;;13.57;47.83
27425;BME280;15244;49.088;11.886;2022-09-28T18:07:12;94202.09;;;13.56;48.12
27425;BME280;15244;49.088;11.886;2022-09-28T18:12:13;94199.78;;;13.54;48.27
27425;BME280;15244;49.088;11.886;2022-09-28T18:17:16;94197.50;;;13.53;48.51
27425;BME280;15244;49.088;11.886;2022-09-28T18:22:18;94202.31;;;13.49;48.36
27425;BME280;15244;49.088;11.886;2022-09-28T18:27:19;94210.66;;;13.45;48.71
27425;BME280;15244;49.088;11.886;2022-09-28T18:32:21;94215.91;;;13.39;49.01
27425;BME280;15244;49.088;11.886;2022-09-28T18:37:23;94218.88;;;13.32;48.98
27425;BME280;15244;49.088;11.886;2022-09-28T18:42:24;94230.38;;;13.27;49.07
27425;BME280;15244;49.088;11.886;2022-09-28T18:47:26;94231.31;;;13.20;49.10
27425;BME280;15244;49.088;11.886;2022-09-28T18:52:28;94234.16;;;13.17;49.18
27425;BME280;15244;49.088;11.886;2022-09-28T18:57:29;94240.16;;;13.12;49.11
27425;BME280;15244;49.088;11.886;2022-09-28T19:02:34;94251.19;;;13.08;49.40
27425;BME280;15244;49.088;11.886;2022-09-28T19:07:36;94248.13;;;13.06;49.65
27425;BME280;15244;49.088;11.886;2022-09-28T19:12:37;94249.78;;;13.04;49.64
27425;BME280;15244;49.088;11.886;2022-09-28T19:17:39;94258.50;;;12.98;49.90
27425;BME280;15244;49.088;11.886;2022-09-28T19:22:40;94252.72;;;12.96;49.97
27425;BME280;15244;49.088;11.886;2022-09-28T19:27:43;94259.84;;;12.94;50.00
27425;BME280;15244;49.088;11.886;2022-09-28T19:32:44;94257.94;;;12.91;50.12
27425;BME280;15244;49.088;11.886;2022-09-28T19:37:46;94279.53;;;12.89;50.43
27425;BME280;15244;49.088;11.886;2022-09-28T19:42:49;94276.44;;;12.87;50.63
27425;BME280;15244;49.088;11.886;2022-09-28T19:47:50;94276.88;;;12.85;50.38
27425;BME280;15244;49.088;11.886;2022-09-28T19:52:57;94287.03;;;12.85;50.39
27425;BME280;15244;49.088;11.886;2022-09-28T19:58:02;94292.59;;;12.81;50.52
27425;BME280;15244;49.088;11.886;2022-09-28T20:03:04;94299.69;;;12.78;50.79
27425;BME280;15244;49.088;11.886;2022-09-28T20:08:07;94313.47;;;12.75;50.74
27425;BME280;15244;49.088;11.886;2022-09-28T20:13:08;94311.63;;;12.72;50.68
27425;BME280;15244;49.088;11.886;2022-09-28T20:18:10;94317.16;;;12.68;50.61
27425;BME280;15244;49.088;11.886;2022-09-28T20:23:13;94317.16;;;12.68;50.89
27425;BME280;15244;49.088;11.886;2022-09-28T20:28:16;94312.13;;;12.67;50.61
27425;BME280;15244;49.088;11.886;2022-09-28T20:33:17;94318.03;;;12.65;50.67
27425;BME280;15244;49.088;11.886;2022-09-28T20:38:28;94322.72;;;12.65;50.90
27425;BME280;15244;49.088;11.886;2022-09-28T20:43:30;94328.22;;;12.65;51.11
27425;BME280;15244;49.088;11.886;2022-09-28T20:48:32;94325.47;;;12.65;50.93
27425;BME280;15244;49.088;11.886;2022-09-28T20:53:33;94326.69;;;12.64;51.05
27425;BME280;15244;49.088;11.886;2022-09-28T20:58:40;94338.03;;;12.62;51.24
27425;BME280;15244;49.088;11.886;2022-09-28T21:03:50;94336.50;;;12.61;51.27
27425;BME280;15244;49.088;11.886;2022-09-28T21:08:52;94336.16;;;12.59;51.45
27425;BME280;15244;49.088;11.886;2022-09-28T21:13:56;94341.63;;;12.59;51.48
27425;BME280;15244;49.088;11.886;2022-09-28T21:18:59;94338.91;;;12.59;51.53
27425;BME280;15244;49.088;11.886;2022-09-28T21:24:03;94351.38;;;12.60;51.86
27425;BME280;15244;49.088;11.886;2022-09-28T21:29:09;94347.09;;;12.59;51.84
27425;BME280;15244;49.088;11.886;2022-09-28T21:34:18;94344.38;;;12.59;51.89
27425;BME280;15244;49.088;11.886;2022-09-28T21:39:21;94344.78;;;12.57;52.09
27425;BME280;15244;49.088;11.886;2022-09-28T21:44:24;94350.25;;;12.57;52.34
27425;BME280;15244;49.088;11.886;2022-09-28T21:49:26;94349.50;;;12.57;52.14
27425;BME280;15244;49.088;11.886;2022-09-28T21:54:27;94348.81;;;12.53;52.32
27425;BME280;15244;49.088;11.886;2022-09-28T21:59:29;94355.47;;;12.52;52.39
27425;BME280;15244;49.088;11.886;2022-09-28T22:04:31;94364.97;;;12.47;52.59
27425;BME280;15244;49.088;11.886;2022-09-28T22:09:34;94369.31;;;12.45;52.30
27425;BME280;15244;49.088;11.886;2022-09-28T22:14:35;94363.19;;;12.41;52.58
27425;BME280;15244;49.088;11.886;2022-09-28T22:19:37;94359.41;;;12.34;52.50
27425;BME280;15244;49.088;11.886;2022-09-28T22:24:39;94353.72;;;12.29;52.41
27425;BME280;15244;49.088;11.886;2022-09-28T22:29:41;94356.09;;;12.27;52.59
27425;BME280;15244;49.088;11.886;2022-09-28T22:34:42;94356.19;;;12.23;52.60
27425;BME280;15244;49.088;11.886;2022-09-28T22:39:44;94360.56;;;12.21;52.84
27425;BME280;15244;49.088;11.886;2022-09-28T22:44:46;94366.84;;;12.18;52.82
27425;BME280;15244;49.088;11.886;2022-09-28T22:49:48;94350.97;;;12.12;52.74
27425;BME280;15244;49.088;11.886;2022-09-28T22:54:49;94353.03;;;12.08;52.81
27425;BME280;15244;49.088;11.886;2022-09-28T22:59:51;94353.53;;;12.03;52.67
27425;BME280;15244;49.088;11.886;2022-09-28T23:04:53;94361.38;;;12.01;52.95
27425;BME280;15244;49.088;11.886;2022-09-28T23:09:54;94364.53;;;12.00;53.01
27425;BME280;15244;49.088;11.886;2022-09-28T23:14:58;94366.16;;;11.97;53.14
27425;BME280;15244;49.088;11.886;2022-09-28T23:20:00;94358.81;;;11.94;52.97
27425;BME280;15244;49.088;11.886;2022-09-28T23:25:02;94358.91;;;11.90;53.25
27425;BME280;15244;49.088;11.886;2022-09-28T23:30:03;94354.28;;;11.87;53.23
27425;BME280;15244;49.088;11.886;2022-09-28T23:35:06;94355.47;;;11.86;53.24
27425;BME280;15244;49.088;11.886;2022-09-28T23:40:08;94353.91;;;11.85;53.32
27425;BME280;15244;49.088;11.886;2022-09-28T23:45:09;94360.56;;;11.84;53.06
27425;BME280;15244;49.088;11.886;2022-09-28T23:50:11;94357.56;;;11.79;53.07
27425;BME280;15244;49.088;11.886;2022-09-28T23:55:13;94358.84;;;11.74;53.13
